Time;durP1;ratioP1;P1;durP2;ratioP2;P2;SDS_P1;SDS_P2;PMS_P1;PMS_P2;Temp;Humidity;BMP_temperature;BMP_pressure;BME280_temperature;BME280_humidity;BME280_pressure;Samples;Min_cycle;Max_cycle;Signal;HPM_P1;HPM_P2
2023/10/13 00:02:10;;;;;;;19.20;6.63;;;;;;;11.39;100.00;101180.03;7368110;19;20464;-44
2023/10/13 00:04:42;;;;;;;21.23;9.20;;;;;;;11.34;100.00;101174.66;7394162;19;20747;-42
2023/10/13 00:07:14;;;;;;;19.77;8.87;;;;;;;11.32;100.00;101167.66;7368625;19;20399;-43
2023/10/13 00:09:44;;;;;;;25.10;11.77;;;;;;;11.38;100.00;101170.50;7392436;19;20388;-43
2023/10/13 00:12:13;;;;;;;19.90;9.90;;;;;;;11.49;100.00;101176.19;7367104;19;20434;-41
2023/10/13 00:14:45;;;;;;;12.13;5.60;;;;;;;11.55;100.00;101166.13;7390676;19;20383;-43
2023/10/13 00:17:20;;;;;;;15.07;6.47;;;;;;;11.41;100.00;101173.25;7370873;19;20427;-42
2023/10/13 00:19:52;;;;;;;12.20;4.50;;;;;;;11.46;100.00;101171.75;7391778;19;20391;-45
2023/10/13 00:22:26;;;;;;;12.20;3.53;;;;;;;11.42;100.00;101182.75;7366611;19;20431;-41
2023/10/13 00:25:03;;;;;;;14.70;6.23;;;;;;;11.30;100.00;101185.69;7393633;19;20954;-41
2023/10/13 00:27:33;;;;;;;10.70;3.27;;;;;;;11.19;100.00;101187.75;7368021;19;21043;-42
2023/10/13 00:30:22;;;;;;;7.87;3.63;;;;;;;11.17;100.00;101198.81;7390044;19;20442;-41
2023/10/13 00:32:55;;;;;;;9.30;3.40;;;;;;;11.35;100.00;101193.63;7371146;19;20439;-43
2023/10/13 00:35:29;;;;;;;10.10;5.07;;;;;;;11.46;100.00;101188.94;7369126;19;20415;-42
2023/10/13 00:38:04;;;;;;;9.77;3.60;;;;;;;11.38;100.00;101182.56;7390243;19;20400;-44
2023/10/13 00:46:12;;;;;;;15.40;7.70;;;;;;;11.35;100.00;101168.66;7368531;19;20961;-43
2023/10/13 00:48:51;;;;;;;27.33;14.20;;;;;;;11.39;100.00;101164.53;7388287;19;20753;-42
2023/10/13 00:51:32;;;;;;;15.10;5.07;;;;;;;11.36;100.00;101159.22;7366460;19;20487;-41
2023/10/13 00:54:07;;;;;;;24.30;8.20;;;;;;;11.21;100.00;101154.25;7389987;19;20459;-46
2023/10/13 00:56:43;;;;;;;18.30;7.30;;;;;;;11.26;100.00;101142.44;7367531;19;20399;-43
2023/10/13 00:59:10;;;;;;;11.80;5.80;;;;;;;11.51;100.00;101132.28;7388889;19;20455;-42
2023/10/13 01:01:45;;;;;;;13.90;4.93;;;;;;;11.41;100.00;101126.75;7365908;19;20801;-43
2023/10/13 01:04:12;;;;;;;14.30;4.50;;;;;;;11.32;100.00;101115.97;7394885;19;20745;-42
2023/10/13 01:06:43;;;;;;;17.57;5.83;;;;;;;11.34;100.00;101111.78;7368237;19;20471;-45
2023/10/13 01:09:13;;;;;;;17.20;5.53;;;;;;;11.32;100.00;101108.22;7390448;19;20387;-41
2023/10/13 01:11:46;;;;;;;30.90;5.63;;;;;;;11.20;100.00;101112.06;7362652;19;20847;-41
2023/10/13 01:14:15;;;;;;;20.23;5.80;;;;;;;11.23;100.00;101107.84;7392298;19;20759;-41
2023/10/13 01:16:46;;;;;;;23.53;9.17;;;;;;;11.42;100.00;101094.91;7369218;19;20431;-42
2023/10/13 01:19:17;;;;;;;16.60;6.87;;;;;;;11.40;100.00;101088.81;7390475;19;20430;-41
2023/10/13 01:21:50;;;;;;;21.97;6.93;;;;;;;11.34;100.00;101076.50;7367450;19;20459;-42
2023/10/13 01:24:23;;;;;;;20.63;6.43;;;;;;;11.28;100.00;101077.94;7393057;19;20404;-41
2023/10/13 01:26:55;;;;;;;24.73;6.97;;;;;;;11.35;100.00;101090.31;7369669;19;20439;-42
2023/10/13 01:29:26;;;;;;;23.50;6.90;;;;;;;11.31;100.00;101068.63;7391727;19;20486;-43
2023/10/13 01:31:55;;;;;;;26.40;7.47;;;;;;;11.28;100.00;101062.44;7367595;19;20553;-41
2023/10/13 01:34:22;;;;;;;22.23;7.40;;;;;;;11.32;100.00;101049.72;7392933;19;20744;-43
2023/10/13 01:36:53;;;;;;;27.20;11.47;;;;;;;11.38;100.00;101049.09;7374310;19;20422;-41
2023/10/13 01:39:26;;;;;;;23.73;8.10;;;;;;;11.40;100.00;101034.56;7397241;19;20968;-41
2023/10/13 01:41:57;;;;;;;22.20;8.57;;;;;;;11.45;100.00;101014.94;7373954;19;20478;-42
2023/10/13 01:44:26;;;;;;;28.73;9.50;;;;;;;11.55;100.00;101011.06;7400276;19;20403;-41
2023/10/13 01:46:58;;;;;;;25.63;9.00;;;;;;;11.57;100.00;100998.19;7376313;19;20445;-42
2023/10/13 01:49:25;;;;;;;30.10;9.60;;;;;;;11.58;100.00;100990.50;7397485;19;20744;-41
2023/10/13 01:51:55;;;;;;;22.57;10.60;;;;;;;11.63;100.00;100980.34;7371949;19;20458;-42
2023/10/13 01:54:25;;;;;;;22.90;8.73;;;;;;;11.55;100.00;100981.75;7393932;19;20395;-41
2023/10/13 01:56:55;;;;;;;22.30;8.30;;;;;;;11.53;100.00;100975.66;7372276;19;20399;-41
2023/10/13 01:59:22;;;;;;;33.17;9.43;;;;;;;11.60;100.00;100967.31;7393965;19;20391;-41
2023/10/13 02:01:55;;;;;;;26.33;9.10;;;;;;;11.53;100.00;100970.47;7371482;19;20445;-43
2023/10/13 02:04:22;;;;;;;26.43;9.23;;;;;;;11.61;100.00;100958.75;7396202;19;20391;-41
2023/10/13 02:06:52;;;;;;;30.53;10.90;;;;;;;11.65;100.00;100944.25;7371697;19;20391;-42
2023/10/13 02:09:25;;;;;;;32.43;10.90;;;;;;;11.56;100.00;100940.47;7394395;19;20409;-41
2023/10/13 02:11:57;;;;;;;32.00;10.97;;;;;;;11.53;100.00;100934.31;7370802;19;20450;-42
2023/10/13 02:14:25;;;;;;;30.00;9.43;;;;;;;11.55;100.00;100927.50;7397580;19;20479;-41
2023/10/13 02:17:11;;;;;;;31.50;11.20;;;;;;;11.64;100.00;100907.16;7372736;19;20406;-49
2023/10/13 02:19:39;;;;;;;30.83;10.33;;;;;;;11.74;100.00;100887.72;7395636;19;20413;-47
2023/10/13 02:22:11;;;;;;;30.07;10.90;;;;;;;11.72;100.00;100884.22;7370464;19;20451;-42
2023/10/13 02:24:39;;;;;;;40.17;11.60;;;;;;;11.72;100.00;100876.47;7398152;19;20402;-46
2023/10/13 02:27:13;;;;;;;24.90;10.20;;;;;;;11.66;100.00;100874.53;7372269;19;20401;-46
2023/10/13 02:29:40;;;;;;;28.23;10.13;;;;;;;11.68;100.00;100865.13;7393641;19;20799;-41
2023/10/13 02:32:18;;;;;;;24.23;9.83;;;;;;;11.63;100.00;100863.19;7370337;19;20511;-44
2023/10/13 02:34:45;;;;;;;34.00;13.00;;;;;;;11.75;100.00;100861.94;7395130;19;20395;-42
2023/10/13 02:37:18;;;;;;;28.63;10.80;;;;;;;11.74;100.00;100849.84;7370507;19;20503;-44
2023/10/13 02:39:46;;;;;;;43.90;12.60;;;;;;;11.79;100.00;100829.34;7392977;19;21230;-43
2023/10/13 02:42:23;;;;;;;40.00;11.87;;;;;;;11.72;100.00;100830.84;7370953;19;20453;-47
2023/10/13 02:44:55;;;;;;;32.97;12.33;;;;;;;11.70;100.00;100823.84;7395102;19;20926;-47
2023/10/13 02:47:24;;;;;;;40.20;13.07;;;;;;;11.67;100.00;100819.44;7369958;19;20475;-45
2023/10/13 02:49:54;;;;;;;36.40;13.27;;;;;;;11.68;100.00;100816.03;7394952;19;20451;-42
2023/10/13 02:52:24;;;;;;;38.90;12.67;;;;;;;11.75;100.00;100801.66;7369782;19;20476;-43
2023/10/13 02:54:54;;;;;;;30.17;12.37;;;;;;;11.71;100.00;100798.06;7393999;19;21067;-45
2023/10/13 02:57:24;;;;;;;40.00;12.13;;;;;;;11.79;100.00;100789.72;7370585;19;20407;-45
2023/10/13 03:00:11;;;;;;;34.13;13.43;;;;;;;11.85;100.00;100777.88;7392810;19;20391;-44
2023/10/13 03:02:44;;;;;;;43.03;14.60;;;;;;;11.84;100.00;100772.66;7369094;19;20431;-43
2023/10/13 03:05:16;;;;;;;42.17;13.23;;;;;;;11.85;100.00;100767.53;7394205;19;20412;-43
2023/10/13 03:07:45;;;;;;;41.43;13.93;;;;;;;11.82;100.00;100763.97;7370839;19;20428;-42
2023/10/13 03:10:18;;;;;;;33.13;12.97;;;;;;;11.87;100.00;100757.25;7394253;19;20797;-44
2023/10/13 03:12:48;;;;;;;43.43;13.80;;;;;;;11.94;100.00;100751.47;7369526;19;20431;-44
2023/10/13 03:15:20;;;;;;;38.97;13.70;;;;;;;11.89;100.00;100750.44;7370820;19;20392;-41
2023/10/13 03:17:50;;;;;;;34.90;13.53;;;;;;;11.93;100.00;100731.63;7392542;19;20470;-41
2023/10/13 03:20:22;;;;;;;32.57;13.20;;;;;;;11.97;100.00;100724.84;7371303;19;20403;-43
2023/10/13 03:22:54;;;;;;;35.97;13.87;;;;;;;11.98;100.00;100722.34;7390374;19;20451;-40
2023/10/13 03:25:29;;;;;;;35.27;13.43;;;;;;;12.00;100.00;100714.63;7367770;19;20403;-42
2023/10/13 03:28:03;;;;;;;36.83;13.47;;;;;;;12.00;100.00;100706.88;7390577;19;20394;-44
2023/10/13 03:30:38;;;;;;;33.63;13.37;;;;;;;11.99;100.00;100708.56;7369528;19;20750;-42
2023/10/13 03:33:09;;;;;;;35.90;14.40;;;;;;;12.03;100.00;100699.22;7390601;19;20800;-47
2023/10/13 03:35:41;;;;;;;37.87;14.53;;;;;;;12.08;100.00;100689.94;7368664;19;20395;-44
2023/10/13 03:38:19;;;;;;;37.97;14.07;;;;;;;12.19;100.00;100679.09;7391063;19;20388;-45
2023/10/13 03:41:07;;;;;;;33.40;12.90;;;;;;;12.12;100.00;100678.91;7368852;19;20402;-42
2023/10/13 03:43:51;;;;;;;27.83;12.30;;;;;;;12.15;100.00;100662.56;7391105;19;20498;-42
2023/10/13 03:46:22;;;;;;;28.23;11.30;;;;;;;12.14;100.00;100661.72;7370408;19;20395;-42
2023/10/13 03:48:59;;;;;;;27.33;13.10;;;;;;;12.17;100.00;100648.00;7390315;19;20392;-41
2023/10/13 03:51:33;;;;;;;28.90;12.57;;;;;;;12.17;100.00;100627.31;7368513;19;20403;-45
2023/10/13 03:54:07;;;;;;;27.10;12.17;;;;;;;12.21;100.00;100611.06;7390638;19;20388;-42
2023/10/13 03:56:41;;;;;;;30.20;12.20;;;;;;;12.19;100.00;100604.09;7369283;19;20396;-42
2023/10/13 03:59:20;;;;;;;21.63;10.93;;;;;;;12.28;100.00;100576.81;7389461;19;20394;-42
2023/10/13 04:01:58;;;;;;;24.27;10.93;;;;;;;12.28;100.00;100563.88;7367266;19;20438;-42
2023/10/13 04:04:48;;;;;;;29.13;11.20;;;;;;;12.31;100.00;100549.28;7391791;19;20391;-42
2023/10/13 04:15:36;;;;;;;19.67;10.20;;;;;;;12.36;100.00;100419.22;7363879;19;21034;-42
2023/10/13 04:18:18;;;;;;;18.13;9.37;;;;;;;12.39;100.00;100402.94;7392487;19;20396;-43
2023/10/13 04:21:07;;;;;;;14.50;7.60;;;;;;;12.39;100.00;100385.72;7367049;19;20402;-42
2023/10/13 04:24:08;;;;;;;25.27;9.60;;;;;;;12.44;100.00;100365.13;7389088;19;20507;-43
2023/10/13 04:26:36;;;;;;;17.57;8.70;;;;;;;12.48;100.00;100343.69;7367803;19;20487;-44
2023/10/13 04:29:10;;;;;;;20.03;10.20;;;;;;;12.48;100.00;100333.34;7392797;19;20403;-42
2023/10/13 04:31:57;;;;;;;25.53;13.10;;;;;;;12.52;100.00;100326.53;7367234;19;20469;-44
2023/10/13 04:34:34;;;;;;;23.10;11.80;;;;;;;12.52;100.00;100319.63;7389880;19;20396;-41
2023/10/13 04:37:26;;;;;;;24.97;11.73;;;;;;;12.55;100.00;100308.50;7367142;19;20403;-42
2023/10/13 04:39:59;;;;;;;34.80;16.90;;;;;;;12.58;100.00;100297.34;7389731;19;20384;-43
2023/10/13 04:45:38;;;;;;;22.07;12.13;;;;;;;12.63;100.00;100267.28;7388167;19;20474;-42
2023/10/13 04:48:17;;;;;;;25.53;11.80;;;;;;;12.66;100.00;100237.19;7367723;19;20454;-42
2023/10/13 04:50:50;;;;;;;24.10;13.13;;;;;;;12.71;100.00;100219.19;7366170;19;20742;-42
2023/10/13 04:53:29;;;;;;;23.70;12.27;;;;;;;12.71;100.00;100218.31;7388306;19;20431;-42
2023/10/13 04:56:53;;;;;;;25.50;12.80;;;;;;;12.74;100.00;100198.56;7366900;19;20406;-44
2023/10/13 05:02:31;;;;;;;33.27;15.33;;;;;;;12.83;100.00;100162.53;7365755;19;20482;-43
2023/10/13 05:46:20;;;;;;;47.10;21.00;;;;;;;13.68;100.00;99995.84;7372228;19;20752;-42
2023/10/13 05:48:42;;;;;;;50.27;21.97;;;;;;;13.71;100.00;99989.00;7396187;19;20402;-42
2023/10/13 06:29:19;;;;;;;53.67;22.30;;;;;;;14.54;100.00;99920.09;7388214;19;20404;-42
2023/10/13 06:31:50;;;;;;;58.43;24.13;;;;;;;14.54;100.00;99933.09;7365221;19;20455;-44
2023/10/13 06:34:20;;;;;;;50.50;23.03;;;;;;;14.57;100.00;99931.41;7391411;19;20423;-43
2023/10/13 06:36:54;;;;;;;52.53;26.10;;;;;;;14.61;100.00;99934.03;7363766;19;20558;-42
2023/10/13 06:39:34;;;;;;;46.97;22.00;;;;;;;14.61;100.00;99937.50;7391851;19;20403;-43
2023/10/13 06:42:07;;;;;;;51.47;24.93;;;;;;;14.65;100.00;99935.81;7365672;19;20455;-47
2023/10/13 06:44:39;;;;;;;54.23;26.20;;;;;;;14.63;100.00;99950.50;7388733;19;20403;-45
2023/10/13 06:47:09;;;;;;;53.83;25.47;;;;;;;14.61;100.00;99952.22;7366747;19;20970;-45
2023/10/13 06:49:39;;;;;;;50.93;23.53;;;;;;;14.62;100.00;99948.75;7390753;19;21072;-45
2023/10/13 06:52:09;;;;;;;39.43;20.70;;;;;;;14.64;100.00;99953.13;7365885;19;20999;-46
2023/10/13 06:54:40;;;;;;;50.60;23.60;;;;;;;14.65;100.00;99949.66;7390498;19;20403;-43
2023/10/13 06:57:15;;;;;;;48.43;25.27;;;;;;;14.68;100.00;99954.88;7364926;19;21600;-41
2023/10/13 06:59:44;;;;;;;47.60;25.70;;;;;;;14.68;100.00;99949.69;7387574;19;20498;-43
2023/10/13 07:02:21;;;;;;;52.97;23.20;;;;;;;14.69;100.00;99958.38;7363744;19;20462;-44
2023/10/13 07:05:07;;;;;;;51.10;24.97;;;;;;;14.72;100.00;99946.28;7390813;19;21354;-47
2023/10/13 07:07:38;;;;;;;52.07;26.27;;;;;;;14.75;100.00;99945.50;7366583;19;20427;-43
2023/10/13 07:10:11;;;;;;;51.17;23.90;;;;;;;14.74;100.00;99948.94;7389956;19;21712;-43
2023/10/13 07:12:44;;;;;;;50.43;25.20;;;;;;;14.75;100.00;99945.50;7362971;19;20472;-47
2023/10/13 07:15:19;;;;;;;48.73;24.20;;;;;;;14.77;100.00;99937.72;7390507;19;20407;-43
2023/10/13 07:17:54;;;;;;;48.77;23.77;;;;;;;14.82;100.00;99946.44;7365755;19;20438;-42
2023/10/13 07:20:33;;;;;;;50.07;24.60;;;;;;;14.84;100.00;99944.72;7363683;19;20486;-42
2023/10/13 07:23:06;;;;;;;48.80;25.60;;;;;;;14.82;100.00;99949.03;7385954;19;20427;-49
2023/10/13 07:25:38;;;;;;;51.00;25.70;;;;;;;14.84;100.00;99957.72;7366275;19;20381;-46
2023/10/13 07:28:10;;;;;;;51.20;26.57;;;;;;;14.82;100.00;99960.28;7388699;19;21067;-45
2023/10/13 07:30:49;;;;;;;52.73;25.43;;;;;;;14.82;100.00;99967.22;7367494;19;20409;-47
2023/10/13 07:33:19;;;;;;;50.30;25.10;;;;;;;14.84;100.00;99970.69;7386218;19;20427;-42
2023/10/13 07:35:51;;;;;;;43.80;23.90;;;;;;;14.83;100.00;99966.34;7365934;19;20482;-49
2023/10/13 07:38:21;;;;;;;49.30;24.07;;;;;;;14.84;100.00;99971.59;7387194;19;20418;-47
2023/10/13 07:40:52;;;;;;;45.73;23.73;;;;;;;14.84;100.00;99979.38;7365567;19;20419;-46
2023/10/13 07:43:27;;;;;;;40.20;21.13;;;;;;;14.85;100.00;99980.22;7384981;19;20514;-46
2023/10/13 07:45:58;;;;;;;46.47;23.00;;;;;;;14.85;100.00;99999.28;7365534;19;20970;-44
2023/10/13 07:48:28;;;;;;;44.77;22.83;;;;;;;14.87;100.00;100001.88;7386477;19;20418;-45
2023/10/13 07:51:03;;;;;;;42.97;22.27;;;;;;;14.85;100.00;100030.44;7363479;19;20967;-42
2023/10/13 07:53:39;;;;;;;47.93;21.60;;;;;;;14.84;100.00;100048.59;7386478;19;20853;-44
2023/10/13 07:56:11;;;;;;;41.10;22.80;;;;;;;14.84;100.00;100067.66;7365614;19;20845;-43
2023/10/13 07:58:52;;;;;;;41.23;21.63;;;;;;;14.84;100.00;100077.16;7385912;19;20410;-42
2023/10/13 08:01:22;;;;;;;37.70;20.90;;;;;;;14.83;100.00;100083.22;7364576;19;20419;-43
2023/10/13 08:04:04;;;;;;;41.33;21.70;;;;;;;14.82;100.00;100084.06;7386851;19;20442;-47
2023/10/13 08:06:36;;;;;;;37.37;19.70;;;;;;;14.79;100.00;100099.59;7366112;19;20777;-41
2023/10/13 08:09:30;;;;;;;36.73;21.00;;;;;;;14.81;100.00;100084.91;7389051;19;20403;-45
2023/10/13 08:12:00;;;;;;;42.77;22.43;;;;;;;14.83;100.00;100073.69;7364599;19;20526;-44
2023/10/13 08:14:33;;;;;;;39.97;21.33;;;;;;;14.84;100.00;100065.06;7387744;19;20400;-42
2023/10/13 08:17:10;;;;;;;42.43;21.10;;;;;;;14.87;100.00;100058.16;7364912;19;20419;-48
2023/10/13 08:19:44;;;;;;;39.53;19.90;;;;;;;14.85;100.00;100055.53;7386827;19;20419;-46
2023/10/13 08:22:35;;;;;;;34.53;19.23;;;;;;;14.84;100.00;100062.47;7363115;19;20446;-43
2023/10/13 08:25:33;;;;;;;39.73;19.83;;;;;;;14.84;100.00;100056.38;7388959;19;20428;-43
2023/10/13 08:28:53;;;;;;;30.40;16.67;;;;;;;14.79;100.00;100045.06;7365581;19;20438;-41
2023/10/13 08:31:22;;;;;;;35.00;16.67;;;;;;;14.80;100.00;100049.41;7364854;19;20427;-42
2023/10/13 08:33:59;;;;;;;29.50;16.30;;;;;;;14.79;100.00;100039.88;7386468;19;20522;-42
2023/10/13 08:36:31;;;;;;;27.90;16.20;;;;;;;14.75;100.00;100043.25;7363114;19;21128;-41
2023/10/13 08:39:22;;;;;;;30.77;16.13;;;;;;;14.75;100.00;100045.88;7385753;19;20486;-41
2023/10/13 08:42:10;;;;;;;28.47;15.37;;;;;;;14.75;100.00;100038.97;7363177;19;20466;-42
2023/10/13 08:44:40;;;;;;;25.50;14.77;;;;;;;14.74;100.00;100025.91;7384041;19;20425;-46
2023/10/13 08:47:24;;;;;;;26.60;14.87;;;;;;;14.72;100.00;100016.38;7364354;19;20426;-44
2023/10/13 08:50:10;;;;;;;20.83;13.00;;;;;;;14.69;100.00;100023.28;7386245;19;20395;-46
2023/10/13 08:52:46;;;;;;;21.60;12.40;;;;;;;14.72;100.00;100016.38;7362520;19;20458;-44
2023/10/13 08:58:03;;;;;;;16.23;10.17;;;;;;;14.68;100.00;100032.78;7387569;19;20396;-42
2023/10/13 09:00:55;;;;;;;17.37;11.00;;;;;;;14.70;100.00;100020.69;7362299;19;20402;-46
2023/10/13 09:03:42;;;;;;;19.73;12.00;;;;;;;14.70;100.00;100012.91;7385013;19;20438;-41
2023/10/13 09:06:14;;;;;;;17.90;9.70;;;;;;;14.70;100.00;99992.13;7363046;19;20427;-46
2023/10/13 09:09:04;;;;;;;16.87;9.70;;;;;;;14.74;100.00;99974.00;7386624;19;20399;-40
2023/10/13 09:11:48;;;;;;;12.90;7.60;;;;;;;14.76;100.00;99962.81;7362895;19;20419;-42
2023/10/13 09:14:33;;;;;;;15.77;9.13;;;;;;;14.81;100.00;99949.88;7384977;19;20399;-40
2023/10/13 09:17:08;;;;;;;13.90;6.90;;;;;;;14.82;100.00;99957.69;7361501;19;21285;-43
2023/10/13 09:19:55;;;;;;;14.53;7.60;;;;;;;14.85;100.00;99946.47;7385304;19;20402;-41
2023/10/13 09:22:27;;;;;;;11.23;5.27;;;;;;;14.89;100.00;99937.88;7361304;19;20797;-40
2023/10/13 09:24:58;;;;;;;11.53;6.67;;;;;;;14.99;100.00;99931.91;7387226;19;20454;-41
2023/10/13 09:27:27;;;;;;;14.30;8.47;;;;;;;15.05;100.00;99962.28;7361947;19;20486;-42
2023/10/13 09:30:06;;;;;;;16.00;8.47;;;;;;;15.07;100.00;99968.34;7387871;19;20409;-40
2023/10/13 09:32:45;;;;;;;15.50;8.07;;;;;;;15.11;100.00;99987.44;7361283;19;20865;-41
2023/10/13 09:35:23;;;;;;;12.23;6.27;;;;;;;15.18;100.00;100025.63;7386785;19;20395;-42
2023/10/13 09:37:51;;;;;;;13.67;8.93;;;;;;;15.23;100.00;100052.53;7362819;19;20816;-46
2023/10/13 09:40:37;;;;;;;13.50;8.37;;;;;;;15.28;100.00;100075.09;7362037;19;20400;-43
2023/10/13 09:43:07;;;;;;;11.60;7.50;;;;;;;15.37;100.00;100088.19;7382146;19;20435;-41
2023/10/13 09:45:39;;;;;;;13.93;8.20;;;;;;;15.42;100.00;100091.72;7364069;19;20943;-42
2023/10/13 09:48:16;;;;;;;19.60;8.90;;;;;;;15.47;100.00;100107.34;7382847;19;20424;-42
2023/10/13 09:50:50;;;;;;;9.27;5.60;;;;;;;15.46;100.00;100135.09;7361903;19;20442;-45
2023/10/13 09:53:18;;;;;;;13.77;8.63;;;;;;;15.50;100.00;100138.59;7383472;19;20458;-42
2023/10/13 09:55:50;;;;;;;17.57;7.67;;;;;;;15.51;100.00;100143.81;7361502;19;20419;-41
2023/10/13 09:58:18;;;;;;;13.17;7.87;;;;;;;15.49;100.00;100152.47;7391479;19;20366;-43
2023/10/13 10:03:50;;;;;;;10.93;7.67;;;;;;;15.35;100.00;100167.88;7388671;19;20846;-49
2023/10/13 10:06:28;;;;;;;13.90;7.70;;;;;;;15.28;100.00;100189.44;7367490;19;20775;-48
2023/10/13 10:09:11;;;;;;;15.30;8.80;;;;;;;15.24;100.00;100176.38;7391990;19;20402;-45
2023/10/13 10:12:01;;;;;;;13.03;8.73;;;;;;;15.23;100.00;100156.47;7367855;19;20815;-50
2023/10/13 10:14:47;;;;;;;12.67;6.67;;;;;;;15.22;100.00;100159.91;7392094;19;20433;-45
2023/10/13 10:17:14;;;;;;;13.50;5.87;;;;;;;15.20;100.00;100160.75;7368294;19;20435;-47
2023/10/13 10:19:53;;;;;;;14.47;8.30;;;;;;;15.19;100.00;100139.09;7388985;19;20426;-41
2023/10/13 10:22:35;;;;;;;20.83;9.07;;;;;;;15.17;100.00;100140.78;7364794;19;20528;-44
2023/10/13 10:25:24;;;;;;;14.83;6.47;;;;;;;15.13;100.00;100131.22;7389690;19;20412;-41
2023/10/13 10:27:58;;;;;;;12.23;6.97;;;;;;;15.17;100.00;100135.59;7367875;19;21014;-42
2023/10/13 10:30:29;;;;;;;11.27;7.27;;;;;;;15.16;100.00;100154.63;7365074;19;20482;-43
2023/10/13 10:33:01;;;;;;;13.30;7.50;;;;;;;15.21;100.00;100132.19;7394966;19;21034;-41
2023/10/13 10:35:32;;;;;;;12.43;7.17;;;;;;;15.27;100.00;100130.53;7367452;19;20391;-44
2023/10/13 10:38:23;;;;;;;15.17;8.77;;;;;;;15.30;100.00;100120.16;7394292;19;20459;-48
2023/10/13 10:40:56;;;;;;;16.20;7.20;;;;;;;15.32;100.00;100111.53;7370873;19;20416;-45
2023/10/13 10:43:29;;;;;;;13.53;6.60;;;;;;;15.37;100.00;100101.19;7392064;19;20419;-40
2023/10/13 10:46:02;;;;;;;14.53;8.70;;;;;;;15.42;100.00;100078.72;7370916;19;21241;-44
2023/10/13 10:48:34;;;;;;;16.33;7.43;;;;;;;15.45;100.00;100078.78;7397772;19;20459;-41
2023/10/13 10:51:14;;;;;;;11.37;6.73;;;;;;;15.49;100.00;100074.47;7370471;19;20403;-40
2023/10/13 10:53:46;;;;;;;15.57;6.90;;;;;;;15.55;100.00;100078.84;7392338;19;20415;-42
2023/10/13 10:56:24;;;;;;;15.40;7.20;;;;;;;15.57;100.00;100085.81;7372159;19;20467;-42
2023/10/13 10:59:00;;;;;;;14.40;7.70;;;;;;;15.63;100.00;100074.59;7393423;19;20774;-42
2023/10/13 11:01:38;;;;;;;21.33;8.17;;;;;;;15.71;100.00;100064.28;7371238;19;20773;-40
2023/10/13 11:04:18;;;;;;;15.90;7.30;;;;;;;15.78;100.00;100072.16;7388664;19;20403;-41
2023/10/13 11:06:49;;;;;;;15.30;8.40;;;;;;;15.87;100.00;100063.56;7362026;19;20437;-41
2023/10/13 11:09:36;;;;;;;13.03;7.23;;;;;;;15.91;100.00;100061.88;7383907;19;20407;-40
2023/10/13 11:12:23;;;;;;;17.00;7.40;;;;;;;16.01;100.00;100073.25;7364616;19;20443;-41
2023/10/13 11:15:03;;;;;;;14.20;7.63;;;;;;;16.05;100.00;100055.06;7389217;19;20388;-41
2023/10/13 11:17:41;;;;;;;15.40;7.80;;;;;;;16.13;100.00;100051.66;7364503;19;20536;-40
2023/10/13 11:20:16;;;;;;;14.83;7.03;;;;;;;16.17;100.00;100053.44;7387536;19;20403;-43
2023/10/13 11:22:49;;;;;;;11.80;7.77;;;;;;;16.23;100.00;100057.78;7362462;19;20439;-39
2023/10/13 11:25:29;;;;;;;14.27;7.30;;;;;;;16.28;100.00;100061.31;7365494;19;20480;-41
2023/10/13 11:28:06;;;;;;;17.67;6.90;;;;;;;16.39;100.00;100058.78;7387558;19;20403;-40
2023/10/13 11:30:45;;;;;;;11.47;6.17;;;;;;;16.48;100.00;100069.25;7365442;19;20388;-41
2023/10/13 11:33:18;;;;;;;17.30;6.60;;;;;;;16.65;100.00;100089.31;7386881;19;20439;-44
2023/10/13 11:36:03;;;;;;;16.97;6.70;;;;;;;16.71;100.00;100112.78;7363887;19;22213;-40
2023/10/13 11:38:43;;;;;;;12.13;6.93;;;;;;;16.77;100.00;100138.03;7387179;19;20395;-42
2023/10/13 11:41:12;;;;;;;8.27;4.97;;;;;;;16.85;100.00;100136.31;7363921;19;20419;-42
2023/10/13 11:44:07;;;;;;;13.23;6.63;;;;;;;16.96;100.00;100154.63;7385042;19;20423;-43
2023/10/13 11:49:37;;;;;;;10.67;5.30;;;;;;;17.17;100.00;100166.06;7386921;19;20428;-41
2023/10/13 11:54:54;;;;;;;12.87;7.40;;;;;;;17.38;100.00;100176.59;7391347;19;20407;-42
2023/10/13 11:57:26;;;;;;;14.30;6.83;;;;;;;17.45;100.00;100189.66;7371427;19;20720;-43
2023/10/13 12:00:15;;;;;;;15.30;6.80;;;;;;;17.58;100.00;100170.56;7395332;19;20958;-41
2023/10/13 12:05:37;;;;;;;11.33;6.03;;;;;;;17.72;100.00;100168.03;7368330;19;20447;-42
2023/10/13 12:08:19;;;;;;;17.40;6.73;;;;;;;17.81;100.00;100156.75;7391119;19;20471;-45
2023/10/13 12:10:59;;;;;;;11.33;5.20;;;;;;;17.80;100.00;100153.25;7371754;19;21160;-41
2023/10/13 12:13:32;;;;;;;10.63;6.00;;;;;;;17.91;100.00;100150.69;7389437;19;20415;-44
2023/10/13 12:16:08;;;;;;;10.40;5.17;;;;;;;18.00;100.00;100135.91;7368988;19;20423;-43
2023/10/13 12:18:38;;;;;;;13.50;5.63;;;;;;;18.06;100.00;100115.91;7388484;19;20758;-44
2023/10/13 12:21:13;;;;;;;11.73;5.40;;;;;;;18.05;100.00;100102.84;7366106;19;20499;-46
2023/10/13 12:23:45;;;;;;;13.20;4.20;;;;;;;18.09;100.00;100083.72;7389144;19;20419;-44
2023/10/13 12:26:19;;;;;;;13.00;4.93;;;;;;;18.12;100.00;100061.97;7369171;19;20410;-44
2023/10/13 12:29:05;;;;;;;8.93;4.27;;;;;;;18.19;100.00;100017.59;7390829;19;20403;-44
2023/10/13 12:31:39;;;;;;;7.93;4.93;;;;;;;18.25;100.00;99993.22;7366495;19;20407;-44
2023/10/13 12:34:17;;;;;;;11.43;5.03;;;;;;;18.23;100.00;99963.66;7386692;19;20407;-46
2023/10/13 12:36:53;;;;;;;16.50;4.60;;;;;;;18.29;100.00;99947.97;7362340;19;20441;-47
2023/10/13 12:50:34;;;;;;;24.60;6.63;;;;;;;18.43;100.00;99812.13;7385665;19;20404;-44
2023/10/13 12:53:04;;;;;;;13.33;5.30;;;;;;;18.51;100.00;99765.06;7363340;19;20437;-45
2023/10/13 12:55:33;;;;;;;10.67;4.27;;;;;;;18.49;100.00;99753.78;7362914;19;20431;-44
2023/10/13 12:58:04;;;;;;;9.33;4.77;;;;;;;18.60;100.00;99730.19;7384146;19;20408;-47
2023/10/13 13:00:38;;;;;;;10.17;4.60;;;;;;;18.62;100.00;99686.66;7363228;19;20416;-42
2023/10/13 13:03:11;;;;;;;8.43;3.73;;;;;;;18.56;100.00;99676.25;7382698;19;20798;-44
2023/10/13 13:05:44;;;;;;;13.20;3.83;;;;;;;18.61;100.00;99679.69;7363840;19;20422;-47
2023/10/13 13:08:21;;;;;;;9.20;4.50;;;;;;;18.61;100.00;99672.72;7388974;19;20420;-45
2023/10/13 13:10:52;;;;;;;12.67;4.30;;;;;;;18.65;100.00;99680.53;7366170;19;20418;-42
2023/10/13 13:13:24;;;;;;;12.00;5.10;;;;;;;18.76;100.00;99679.56;7387371;19;20958;-46
2023/10/13 13:15:56;;;;;;;12.27;4.90;;;;;;;18.72;100.00;99716.19;7367106;19;20454;-42
2023/10/13 13:18:26;;;;;;;8.77;2.93;;;;;;;18.74;100.00;99707.44;7385442;19;20396;-45
2023/10/13 13:20:56;;;;;;;22.17;4.80;;;;;;;18.74;100.00;99697.00;7363329;19;21112;-41
2023/10/13 13:23:25;;;;;;;19.43;4.63;;;;;;;18.66;100.00;99727.53;7384499;19;20514;-43
2023/10/13 13:25:56;;;;;;;8.07;4.23;;;;;;;18.80;100.00;99701.28;7363489;19;20998;-46
2023/10/13 13:28:28;;;;;;;10.67;4.93;;;;;;;18.84;100.00;99657.72;7385459;19;20426;-44
2023/10/13 13:31:02;;;;;;;6.03;3.03;;;;;;;18.76;100.00;99668.22;7364688;19;20419;-41
2023/10/13 13:33:33;;;;;;;12.27;4.33;;;;;;;18.78;100.00;99676.06;7390474;19;20435;-41
2023/10/13 13:36:04;;;;;;;10.50;4.80;;;;;;;18.81;100.00;99682.13;7366542;19;20426;-40
2023/10/13 13:38:34;;;;;;;10.83;5.23;;;;;;;19.11;100.00;99617.38;7389046;19;20967;-40
2023/10/13 13:41:09;;;;;;;10.57;4.50;;;;;;;19.15;100.00;99576.38;7368093;19;20982;-41
2023/10/13 13:43:50;;;;;;;11.77;4.63;;;;;;;19.12;100.00;99563.38;7390582;19;20978;-46
2023/10/13 13:46:27;;;;;;;11.23;4.27;;;;;;;19.11;100.00;99559.00;7370188;19;20419;-43
2023/10/13 13:49:00;;;;;;;10.57;4.63;;;;;;;19.10;100.00;99562.50;7392465;19;20777;-45
2023/10/13 13:51:32;;;;;;;17.97;5.20;;;;;;;19.10;100.00;99550.31;7367293;19;20444;-41